Time;durP1;ratioP1;P1;durP2;ratioP2;P2;SDS_P1;SDS_P2;PMS_P1;PMS_P2;Temp;Humidity;BMP_temperature;BMP_pressure;BME280_temperature;BME280_humidity;BME280_pressure;Samples;Min_cycle;Max_cycle;Signal;HPM_P1;HPM_P2
2022/09/07 00:00:15;;;;;;;;;;;;;;;;;;5072421;28;19951;-77
2022/09/07 00:02:40;;;;;;;;;;;;;;;;;;5054792;28;19917;-76
2022/09/07 00:05:06;;;;;;;;;;;;;;;;;;5054380;28;19908;-77
2022/09/07 00:07:31;;;;;;;;;;;;;;;;;;5072325;28;19923;-77
2022/09/07 00:09:57;;;;;;;;;;;;;;;;;;5063267;28;19908;-76
2022/09/07 00:12:22;;;;;;;;;;;;;;;;;;5072448;28;19938;-77
2022/09/07 00:14:48;;;;;;;;;;;;;;;;;;5053705;28;19908;-77
2022/09/07 00:17:13;;;;;;;;;;;;;;;;;;5072332;28;19919;-77
2022/09/07 00:19:39;;;;;;;;;;;;;;;;;;5072082;28;20330;-77
2022/09/07 00:22:04;;;;;;;;;;;;;;;;;;5054134;28;19919;-77
2022/09/07 00:24:29;;;;;;;;;;;;;;;;;;5072178;28;20748;-77
2022/09/07 00:26:55;;;;;;;;;;;;;;;;;;5072300;28;20019;-76
2022/09/07 00:29:20;;;;;;;;;;;;;;;;;;5054067;28;20023;-76
2022/09/07 00:31:46;;;;;;;;;;;;;;;;;;5072008;28;20332;-76
2022/09/07 00:34:11;;;;;;;;;;;;;;;;;;5059823;28;19915;-76
2022/09/07 00:36:36;;;;;;;;;;;;;;;;;;5072148;28;19938;-76
2022/09/07 00:39:02;;;;;;;;;;;;;;;;;;5072081;28;19953;-77
2022/09/07 00:41:27;;;;;;;;;;;;;;;;;;5072498;28;19966;-77
2022/09/07 00:43:52;;;;;;;;;;;;;;;;;;5072135;28;19912;-78
2022/09/07 00:46:18;;;;;;;;;;;;;;;;;;5037344;28;19927;-77
2022/09/07 00:48:43;;;;;;;;;;;;;;;;;;5069734;28;19912;-77
2022/09/07 00:51:09;;;;;;;;;;;;;;;;;;5054141;28;19912;-76
2022/09/07 00:53:34;;;;;;;;;;;;;;;;;;5071376;28;19909;-76
2022/09/07 00:56:00;;;;;;;;;;;;;;;;;;5071783;28;20379;-76
2022/09/07 00:58:25;;;;;;;;;;;;;;;;;;5071491;28;19955;-77
2022/09/07 01:00:50;;;;;;;;;;;;;;;;;;5054130;28;19912;-77
2022/09/07 01:03:16;;;;;;;;;;;;;;;;;;5053605;28;19951;-77
2022/09/07 01:05:42;;;;;;;;;;;;;;;;;;5054045;28;19912;-77
2022/09/07 01:08:08;;;;;;;;;;;;;;;;;;5067256;28;19964;-78
2022/09/07 01:10:33;;;;;;;;;;;;;;;;;;5068118;28;19912;-78
2022/09/07 01:12:58;;;;;;;;;;;;;;;;;;5071645;28;19915;-78
2022/09/07 01:15:24;;;;;;;;;;;;;;;;;;5071859;28;19913;-78
2022/09/07 01:17:49;;;;;;;;;;;;;;;;;;5053840;28;20382;-78
2022/09/07 01:20:15;;;;;;;;;;;;;;;;;;5053583;28;20347;-78
2022/09/07 01:22:41;;;;;;;;;;;;;;;;;;5070770;28;19923;-77
2022/09/07 01:25:06;;;;;;;;;;;;;;;;;;5071370;28;19913;-77
2022/09/07 01:27:32;;;;;;;;;;;;;;;;;;5073950;28;20018;-78
2022/09/07 01:29:57;;;;;;;;;;;;;;;;;;5057211;28;19917;-77
2022/09/07 01:32:22;;;;;;;;;;;;;;;;;;5057387;28;19908;-77
2022/09/07 01:34:48;;;;;;;;;;;;;;;;;;5075080;28;19916;-78
2022/09/07 01:37:13;;;;;;;;;;;;;;;;;;5074770;28;19991;-77
2022/09/07 01:39:39;;;;;;;;;;;;;;;;;;5075365;28;19947;-77
2022/09/07 01:42:04;;;;;;;;;;;;;;;;;;5075499;28;19909;-77
2022/09/07 01:44:30;;;;;;;;;;;;;;;;;;5056938;28;19922;-77
2022/09/07 01:46:55;;;;;;;;;;;;;;;;;;5047508;28;19999;-77
2022/09/07 01:49:20;;;;;;;;;;;;;;;;;;5048326;28;20264;-78
2022/09/07 01:51:46;;;;;;;;;;;;;;;;;;5074898;28;19923;-77
2022/09/07 01:54:11;;;;;;;;;;;;;;;;;;5073460;28;19912;-78
2022/09/07 01:56:36;;;;;;;;;;;;;;;;;;5055665;28;19909;-78
2022/09/07 01:59:02;;;;;;;;;;;;;;;;;;5073172;28;19978;-77
2022/09/07 02:01:27;;;;;;;;;;;;;;;;;;5074677;28;19915;-78
2022/09/07 02:03:52;;;;;;;;;;;;;;;;;;5074648;28;19919;-78
2022/09/07 02:06:18;;;;;;;;;;;;;;;;;;5073344;28;19954;-78
2022/09/07 02:08:43;;;;;;;;;;;;;;;;;;5074333;28;19923;-77
2022/09/07 02:11:08;;;;;;;;;;;;;;;;;;5074819;28;19916;-77
2022/09/07 02:13:34;;;;;;;;;;;;;;;;;;5056782;28;19920;-77
2022/09/07 02:15:59;;;;;;;;;;;;;;;;;;5056505;28;19909;-77
2022/09/07 02:18:25;;;;;;;;;;;;;;;;;;5056420;28;19913;-78
2022/09/07 02:20:50;;;;;;;;;;;;;;;;;;5074387;28;19919;-78
2022/09/07 02:23:15;;;;;;;;;;;;;;;;;;5072873;28;20008;-78
2022/09/07 02:25:41;;;;;;;;;;;;;;;;;;5055444;28;19958;-78
2022/09/07 02:28:06;;;;;;;;;;;;;;;;;;5073719;28;19924;-78
2022/09/07 02:30:31;;;;;;;;;;;;;;;;;;5055249;28;20007;-78
2022/09/07 02:32:57;;;;;;;;;;;;;;;;;;5047926;28;19944;-77
2022/09/07 02:35:22;;;;;;;;;;;;;;;;;;5073844;28;20036;-78
2022/09/07 02:37:47;;;;;;;;;;;;;;;;;;5055808;28;20328;-78
2022/09/07 02:40:13;;;;;;;;;;;;;;;;;;5055848;28;19908;-77
2022/09/07 02:42:39;;;;;;;;;;;;;;;;;;5043150;28;19918;-76
2022/09/07 02:45:04;;;;;;;;;;;;;;;;;;5052394;28;20374;-77
2022/09/07 02:47:30;;;;;;;;;;;;;;;;;;5055539;28;19969;-76
2022/09/07 02:49:56;;;;;;;;;;;;;;;;;;5054876;28;19908;-77
2022/09/07 02:52:21;;;;;;;;;;;;;;;;;;5038952;28;20459;-77
2022/09/07 02:54:46;;;;;;;;;;;;;;;;;;5055068;28;19916;-77
2022/09/07 02:57:12;;;;;;;;;;;;;;;;;;5072063;28;19919;-77
2022/09/07 02:59:37;;;;;;;;;;;;;;;;;;5055896;28;20398;-77
2022/09/07 03:02:02;;;;;;;;;;;;;;;;;;5073312;28;19919;-77
2022/09/07 03:04:28;;;;;;;;;;;;;;;;;;5073362;28;19908;-77
2022/09/07 03:06:53;;;;;;;;;;;;;;;;;;5071121;28;19927;-76
2022/09/07 03:09:19;;;;;;;;;;;;;;;;;;5073070;28;20260;-76
2022/09/07 03:11:44;;;;;;;;;;;;;;;;;;5055035;28;19912;-76
2022/09/07 03:14:09;;;;;;;;;;;;;;;;;;5055471;28;20378;-76
2022/09/07 03:16:35;;;;;;;;;;;;;;;;;;5055052;28;19913;-77
2022/09/07 03:19:00;;;;;;;;;;;;;;;;;;5055285;28;19912;-77
2022/09/07 03:21:26;;;;;;;;;;;;;;;;;;5072801;28;19995;-77
2022/09/07 03:23:51;;;;;;;;;;;;;;;;;;5073391;28;20293;-77
2022/09/07 03:26:17;;;;;;;;;;;;;;;;;;5039066;28;20414;-76
2022/09/07 03:28:42;;;;;;;;;;;;;;;;;;5035040;28;20019;-77
2022/09/07 03:31:07;;;;;;;;;;;;;;;;;;5046868;28;19951;-77
2022/09/07 03:33:33;;;;;;;;;;;;;;;;;;5047398;28;19913;-77
2022/09/07 03:35:58;;;;;;;;;;;;;;;;;;5072865;28;19912;-78
2022/09/07 03:38:24;;;;;;;;;;;;;;;;;;5034937;28;20015;-77
2022/09/07 03:40:49;;;;;;;;;;;;;;;;;;5053124;28;19912;-76
2022/09/07 03:43:14;;;;;;;;;;;;;;;;;;5072636;28;19913;-76
2022/09/07 03:45:40;;;;;;;;;;;;;;;;;;5054837;28;20323;-76
2022/09/07 03:48:05;;;;;;;;;;;;;;;;;;5048663;28;19916;-76
2022/09/07 03:50:31;;;;;;;;;;;;;;;;;;5063894;28;20011;-77
2022/09/07 03:52:56;;;;;;;;;;;;;;;;;;5055024;28;19995;-77
2022/09/07 03:55:21;;;;;;;;;;;;;;;;;;5054662;28;20027;-77
2022/09/07 03:57:47;;;;;;;;;;;;;;;;;;5053565;28;19912;-77
2022/09/07 04:00:12;;;;;;;;;;;;;;;;;;5054435;28;19951;-77
2022/09/07 04:02:37;;;;;;;;;;;;;;;;;;5072599;28;19908;-77
2022/09/07 04:05:03;;;;;;;;;;;;;;;;;;5072153;28;20272;-78
2022/09/07 04:07:28;;;;;;;;;;;;;;;;;;5071993;28;19908;-78
2022/09/07 04:09:54;;;;;;;;;;;;;;;;;;5052319;28;20003;-77
2022/09/07 04:12:19;;;;;;;;;;;;;;;;;;5054738;28;20354;-77
2022/09/07 04:14:45;;;;;;;;;;;;;;;;;;5072263;28;20440;-77
2022/09/07 04:17:10;;;;;;;;;;;;;;;;;;5054561;28;19920;-77
2022/09/07 04:19:35;;;;;;;;;;;;;;;;;;5070506;28;19966;-78
2022/09/07 04:22:01;;;;;;;;;;;;;;;;;;5072278;28;19916;-77
2022/09/07 04:24:26;;;;;;;;;;;;;;;;;;5037942;28;20367;-78
2022/09/07 04:26:52;;;;;;;;;;;;;;;;;;5065465;28;20002;-77
2022/09/07 04:29:17;;;;;;;;;;;;;;;;;;5092267;28;19923;-77
2022/09/07 04:31:43;;;;;;;;;;;;;;;;;;5091377;28;19908;-77
2022/09/07 04:34:08;;;;;;;;;;;;;;;;;;5086920;28;20136;-77
2022/09/07 04:36:33;;;;;;;;;;;;;;;;;;5088286;28;19907;-76
2022/09/07 04:38:59;;;;;;;;;;;;;;;;;;5092736;28;20003;-77
2022/09/07 04:41:24;;;;;;;;;;;;;;;;;;5091319;28;19912;-78
2022/09/07 04:43:49;;;;;;;;;;;;;;;;;;5084517;28;19916;-76
2022/09/07 04:46:15;;;;;;;;;;;;;;;;;;5091710;28;20346;-79
2022/09/07 04:48:40;;;;;;;;;;;;;;;;;;5091209;28;19927;-81
2022/09/07 04:51:06;;;;;;;;;;;;;;;;;;5074415;28;19912;-78
2022/09/07 04:53:31;;;;;;;;;;;;;;;;;;5091408;28;20406;-78
2022/09/07 04:55:56;;;;;;;;;;;;;;;;;;5074241;28;19914;-78
2022/09/07 04:58:22;;;;;;;;;;;;;;;;;;5087730;28;19912;-77
2022/09/07 05:00:47;;;;;;;;;;;;;;;;;;5094491;28;20326;-78
2022/09/07 05:03:12;;;;;;;;;;;;;;;;;;5077985;28;20294;-77
2022/09/07 05:05:38;;;;;;;;;;;;;;;;;;5095153;28;19983;-78
2022/09/07 05:08:03;;;;;;;;;;;;;;;;;;5096260;28;19955;-78
2022/09/07 05:10:29;;;;;;;;;;;;;;;;;;5095921;28;19908;-77
2022/09/07 05:12:54;;;;;;;;;;;;;;;;;;5094690;28;20314;-76
2022/09/07 05:15:19;;;;;;;;;;;;;;;;;;5090829;28;19968;-78
2022/09/07 05:17:45;;;;;;;;;;;;;;;;;;5095344;28;19998;-78
2022/09/07 05:20:10;;;;;;;;;;;;;;;;;;5078288;28;20387;-78
2022/09/07 05:22:39;;;;;;;;;;;;;;;;;;5096087;28;20367;-77
2022/09/07 05:25:05;;;;;;;;;;;;;;;;;;5096074;28;19912;-77
2022/09/07 05:27:30;;;;;;;;;;;;;;;;;;5094393;28;20279;-78
2022/09/07 05:29:55;;;;;;;;;;;;;;;;;;5091285;28;20393;-78
2022/09/07 05:32:21;;;;;;;;;;;;;;;;;;5087372;28;19918;-77
2022/09/07 05:34:46;;;;;;;;;;;;;;;;;;5091779;28;19915;-80
2022/09/07 05:37:12;;;;;;;;;;;;;;;;;;5094675;28;19916;-82
2022/09/07 05:39:37;;;;;;;;;;;;;;;;;;5096188;28;19932;-76
2022/09/07 05:42:03;;;;;;;;;;;;;;;;;;5095533;28;19912;-79
2022/09/07 05:44:30;;;;;;;;;;;;;;;;;;5094305;28;19915;-78
2022/09/07 05:46:55;;;;;;;;;;;;;;;;;;5095407;28;20393;-78
2022/09/07 05:49:21;;;;;;;;;;;;;;;;;;5094865;28;19947;-77
2022/09/07 05:51:47;;;;;;;;;;;;;;;;;;5091993;28;19961;-77
2022/09/07 05:54:12;;;;;;;;;;;;;;;;;;5085229;28;19909;-77
2022/09/07 05:56:37;;;;;;;;;;;;;;;;;;5093266;28;20378;-78
2022/09/07 05:59:03;;;;;;;;;;;;;;;;;;5077079;28;20006;-78
2022/09/07 06:01:28;;;;;;;;;;;;;;;;;;5092734;28;19911;-76
2022/09/07 06:03:53;;;;;;;;;;;;;;;;;;5091641;28;19927;-79
2022/09/07 06:06:20;;;;;;;;;;;;;;;;;;5095242;28;19912;-78
2022/09/07 06:08:45;;;;;;;;;;;;;;;;;;5093541;28;19916;-77
2022/09/07 06:11:11;;;;;;;;;;;;;;;;;;5088844;28;19912;-77
2022/09/07 06:13:37;;;;;;;;;;;;;;;;;;5087135;28;20370;-78
2022/09/07 06:16:02;;;;;;;;;;;;;;;;;;5093730;28;19916;-77
2022/09/07 06:18:27;;;;;;;;;;;;;;;;;;5094690;28;19944;-77
2022/09/07 06:20:53;;;;;;;;;;;;;;;;;;5094876;28;19912;-77
2022/09/07 06:23:18;;;;;;;;;;;;;;;;;;5088471;28;19957;-77
2022/09/07 06:25:43;;;;;;;;;;;;;;;;;;5082816;28;19970;-79
2022/09/07 06:28:09;;;;;;;;;;;;;;;;;;5076363;28;19928;-78
2022/09/07 06:30:35;;;;;;;;;;;;;;;;;;5056464;28;20061;-77
2022/09/07 06:33:00;;;;;;;;;;;;;;;;;;5074477;28;19913;-78
2022/09/07 06:35:25;;;;;;;;;;;;;;;;;;5061046;28;19912;-79
2022/09/07 06:37:51;;;;;;;;;;;;;;;;;;5047187;28;20296;-78
2022/09/07 06:40:16;;;;;;;;;;;;;;;;;;5074604;28;20365;-77
2022/09/07 06:42:41;;;;;;;;;;;;;;;;;;5056371;28;20003;-78
2022/09/07 06:45:09;;;;;;;;;;;;;;;;;;5056064;28;19912;-79
2022/09/07 06:47:35;;;;;;;;;;;;;;;;;;5055780;28;19916;-78
2022/09/07 06:50:26;;;;;;;;;;;;;;;;;;5073722;28;20286;-83
2022/09/07 06:52:52;;;;;;;;;;;;;;;;;;5039176;28;19912;-78
2022/09/07 06:55:17;;;;;;;;;;;;;;;;;;5073879;28;20007;-77
2022/09/07 06:57:42;;;;;;;;;;;;;;;;;;5073042;28;20002;-78
2022/09/07 07:00:08;;;;;;;;;;;;;;;;;;5055783;28;20426;-78
2022/09/07 07:02:33;;;;;;;;;;;;;;;;;;5074362;28;19912;-79
2022/09/07 07:04:58;;;;;;;;;;;;;;;;;;5055651;28;20351;-78
2022/09/07 07:07:24;;;;;;;;;;;;;;;;;;5056141;28;19913;-78
2022/09/07 07:09:49;;;;;;;;;;;;;;;;;;5056127;28;19924;-78
2022/09/07 07:12:15;;;;;;;;;;;;;;;;;;5056105;28;20050;-78
2022/09/07 07:14:40;;;;;;;;;;;;;;;;;;5071891;28;19952;-78
2022/09/07 07:17:05;;;;;;;;;;;;;;;;;;5069436;28;19963;-78
2022/09/07 07:19:31;;;;;;;;;;;;;;;;;;5068516;28;19948;-78
2022/09/07 07:21:56;;;;;;;;;;;;;;;;;;5073988;28;19919;-78
2022/09/07 07:24:21;;;;;;;;;;;;;;;;;;5073381;28;19931;-78
2022/09/07 07:26:47;;;;;;;;;;;;;;;;;;5080082;28;19919;-77
2022/09/07 07:29:12;;;;;;;;;;;;;;;;;;5087738;28;20287;-78
2022/09/07 07:31:38;;;;;;;;;;;;;;;;;;5035313;28;19912;-79
2022/09/07 07:34:03;;;;;;;;;;;;;;;;;;5067556;28;19917;-78
2022/09/07 07:36:29;;;;;;;;;;;;;;;;;;5077808;28;19965;-77
2022/09/07 07:38:55;;;;;;;;;;;;;;;;;;5054323;28;19943;-77
2022/09/07 07:41:20;;;;;;;;;;;;;;;;;;5073466;28;19920;-77
2022/09/07 07:43:46;;;;;;;;;;;;;;;;;;5073178;28;20368;-76
2022/09/07 07:46:11;;;;;;;;;;;;;;;;;;5072916;28;20368;-78
2022/09/07 07:48:36;;;;;;;;;;;;;;;;;;5073069;28;20412;-77
2022/09/07 07:51:02;;;;;;;;;;;;;;;;;;5077190;28;20054;-79
2022/09/07 07:53:27;;;;;;;;;;;;;;;;;;5076714;28;19909;-77
2022/09/07 07:55:52;;;;;;;;;;;;;;;;;;5073069;28;20294;-77
2022/09/07 07:58:18;;;;;;;;;;;;;;;;;;5052866;28;19909;-78
2022/09/07 08:00:43;;;;;;;;;;;;;;;;;;5072432;28;20002;-78
2022/09/07 08:03:09;;;;;;;;;;;;;;;;;;5065700;28;19908;-77
2022/09/07 08:05:34;;;;;;;;;;;;;;;;;;5060702;28;19916;-79
2022/09/07 08:07:59;;;;;;;;;;;;;;;;;;5079809;28;19916;-79
2022/09/07 08:10:28;;;;;;;;;;;;;;;;;;5065978;28;19912;-78
2022/09/07 08:12:53;;;;;;;;;;;;;;;;;;5055470;28;19908;-77
2022/09/07 08:15:19;;;;;;;;;;;;;;;;;;5072280;28;19912;-77
2022/09/07 08:17:44;;;;;;;;;;;;;;;;;;5084507;28;19908;-78
2022/09/07 08:20:10;;;;;;;;;;;;;;;;;;5072237;28;19942;-78
2022/09/07 08:22:35;;;;;;;;;;;;;;;;;;5072862;28;20386;-78
2022/09/07 08:25:01;;;;;;;;;;;;;;;;;;5054418;28;19924;-83
2022/09/07 08:27:26;;;;;;;;;;;;;;;;;;5072212;28;19920;-79
2022/09/07 08:29:52;;;;;;;;;;;;;;;;;;5087972;28;19962;-77
2022/09/07 08:32:17;;;;;;;;;;;;;;;;;;5088957;28;19998;-78
2022/09/07 08:34:42;;;;;;;;;;;;;;;;;;5090857;28;19912;-77
2022/09/07 08:37:08;;;;;;;;;;;;;;;;;;5092953;28;20366;-78
2022/09/07 08:39:34;;;;;;;;;;;;;;;;;;5085302;28;19995;-77
2022/09/07 08:42:00;;;;;;;;;;;;;;;;;;5089611;28;20290;-78
2022/09/07 08:44:25;;;;;;;;;;;;;;;;;;5086808;28;19962;-80
2022/09/07 08:46:51;;;;;;;;;;;;;;;;;;5089134;28;19912;-79
2022/09/07 08:49:16;;;;;;;;;;;;;;;;;;5078581;28;20379;-78
2022/09/07 08:51:42;;;;;;;;;;;;;;;;;;5092210;28;19912;-78
2022/09/07 08:54:07;;;;;;;;;;;;;;;;;;5092721;28;19959;-78
2022/09/07 08:56:32;;;;;;;;;;;;;;;;;;5089171;28;19912;-78
2022/09/07 08:58:58;;;;;;;;;;;;;;;;;;5092132;28;19912;-78
2022/09/07 09:01:23;;;;;;;;;;;;;;;;;;5090992;28;20390;-78
2022/09/07 09:03:48;;;;;;;;;;;;;;;;;;5091366;28;19912;-77
2022/09/07 09:06:14;;;;;;;;;;;;;;;;;;5092630;28;20444;-77
2022/09/07 09:08:40;;;;;;;;;;;;;;;;;;5092794;28;19922;-79
2022/09/07 09:11:06;;;;;;;;;;;;;;;;;;5093187;28;19912;-79
2022/09/07 09:13:31;;;;;;;;;;;;;;;;;;5093252;28;20320;-79
2022/09/07 09:15:56;;;;;;;;;;;;;;;;;;5089976;28;19908;-78
2022/09/07 09:18:22;;;;;;;;;;;;;;;;;;5080714;28;19934;-76
2022/09/07 09:20:47;;;;;;;;;;;;;;;;;;5091394;28;20294;-78
2022/09/07 09:23:13;;;;;;;;;;;;;;;;;;5092913;28;19955;-78
2022/09/07 09:25:38;;;;;;;;;;;;;;;;;;5092511;28;19952;-80
2022/09/07 09:28:03;;;;;;;;;;;;;;;;;;5090953;28;20348;-80
2022/09/07 09:30:30;;;;;;;;;;;;;;;;;;5091448;28;19919;-82
2022/09/07 09:32:55;;;;;;;;;;;;;;;;;;5080107;28;19919;-78
2022/09/07 09:35:20;;;;;;;;;;;;;;;;;;5091203;28;19908;-78
2022/09/07 09:37:46;;;;;;;;;;;;;;;;;;5074274;28;20018;-78
2022/09/07 09:40:11;;;;;;;;;;;;;;;;;;5074867;28;19908;-79
2022/09/07 09:42:37;;;;;;;;;;;;;;;;;;5090413;28;20383;-78
2022/09/07 09:45:02;;;;;;;;;;;;;;;;;;5091750;28;19915;-79
2022/09/07 09:47:28;;;;;;;;;;;;;;;;;;5092119;28;19912;-79
2022/09/07 09:49:53;;;;;;;;;;;;;;;;;;5083585;28;19959;-77
2022/09/07 09:52:19;;;;;;;;;;;;;;;;;;5090838;28;20395;-78
2022/09/07 09:54:44;;;;;;;;;;;;;;;;;;5088438;28;19907;-78
2022/09/07 09:57:09;;;;;;;;;;;;;;;;;;5093222;28;20010;-78
2022/09/07 09:59:35;;;;;;;;;;;;;;;;;;5096129;28;19908;-78
2022/09/07 10:02:00;;;;;;;;;;;;;;;;;;5092375;28;20001;-78
2022/09/07 10:04:26;;;;;;;;;;;;;;;;;;5091959;28;19912;-78
2022/09/07 10:06:52;;;;;;;;;;;;;;;;;;5095800;28;20010;-80
2022/09/07 10:09:17;;;;;;;;;;;;;;;;;;5088383;28;20015;-76
2022/09/07 10:11:43;;;;;;;;;;;;;;;;;;5088643;28;19952;-79
2022/09/07 10:14:08;;;;;;;;;;;;;;;;;;5096235;28;19908;-79
2022/09/07 10:16:34;;;;;;;;;;;;;;;;;;5094973;28;20010;-78
2022/09/07 10:18:59;;;;;;;;;;;;;;;;;;5093035;28;19908;-77
2022/09/07 10:21:24;;;;;;;;;;;;;;;;;;5087086;28;19912;-77
2022/09/07 10:23:50;;;;;;;;;;;;;;;;;;5075534;28;19943;-78
2022/09/07 10:26:15;;;;;;;;;;;;;;;;;;5076963;28;19912;-78
2022/09/07 10:28:41;;;;;;;;;;;;;;;;;;5037210;28;19916;-80
2022/09/07 10:31:06;;;;;;;;;;;;;;;;;;5058026;28;19954;-78
2022/09/07 10:33:31;;;;;;;;;;;;;;;;;;5049543;28;20371;-78
2022/09/07 10:35:57;;;;;;;;;;;;;;;;;;5075301;28;19912;-76
2022/09/07 10:38:24;;;;;;;;;;;;;;;;;;5040547;28;19974;-79
2022/09/07 10:40:50;;;;;;;;;;;;;;;;;;5075339;28;19959;-77
2022/09/07 10:43:15;;;;;;;;;;;;;;;;;;5044104;28;19951;-78
2022/09/07 10:45:41;;;;;;;;;;;;;;;;;;5074969;28;19916;-77
2022/09/07 10:48:06;;;;;;;;;;;;;;;;;;5074666;28;20328;-78
2022/09/07 10:50:31;;;;;;;;;;;;;;;;;;5067031;28;19915;-79
2022/09/07 10:52:57;;;;;;;;;;;;;;;;;;5052171;28;19920;-79
2022/09/07 10:55:25;;;;;;;;;;;;;;;;;;5056990;28;19908;-80
2022/09/07 10:57:51;;;;;;;;;;;;;;;;;;5073326;28;20531;-79
2022/09/07 11:00:16;;;;;;;;;;;;;;;;;;5055506;28;20398;-76
2022/09/07 11:02:42;;;;;;;;;;;;;;;;;;5065849;28;19913;-78
2022/09/07 11:05:07;;;;;;;;;;;;;;;;;;5074020;28;20359;-77
2022/09/07 11:07:33;;;;;;;;;;;;;;;;;;5056534;28;19913;-78
2022/09/07 11:09:58;;;;;;;;;;;;;;;;;;5074393;28;19919;-79
2022/09/07 11:12:23;;;;;;;;;;;;;;;;;;5074139;28;19938;-79
2022/09/07 11:14:49;;;;;;;;;;;;;;;;;;5047104;28;19916;-77
2022/09/07 11:17:14;;;;;;;;;;;;;;;;;;5054931;28;20383;-77
2022/09/07 11:19:39;;;;;;;;;;;;;;;;;;5053388;28;19912;-79
2022/09/07 11:22:05;;;;;;;;;;;;;;;;;;5046726;28;19913;-78
2022/09/07 11:24:30;;;;;;;;;;;;;;;;;;5063897;28;20315;-77
2022/09/07 11:26:56;;;;;;;;;;;;;;;;;;5068294;28;20015;-82
2022/09/07 11:29:21;;;;;;;;;;;;;;;;;;5076045;28;19955;-79
2022/09/07 11:31:47;;;;;;;;;;;;;;;;;;5092773;28;19912;-77
2022/09/07 11:34:13;;;;;;;;;;;;;;;;;;5077533;28;19915;-76
2022/09/07 11:36:40;;;;;;;;;;;;;;;;;;5085057;28;19912;-80
2022/09/07 11:39:05;;;;;;;;;;;;;;;;;;5093322;28;19935;-77
2022/09/07 11:41:30;;;;;;;;;;;;;;;;;;5093712;28;19912;-79
2022/09/07 11:43:56;;;;;;;;;;;;;;;;;;5075464;28;19908;-78
2022/09/07 11:46:21;;;;;;;;;;;;;;;;;;5092481;28;19912;-77
2022/09/07 11:48:47;;;;;;;;;;;;;;;;;;5092191;28;19912;-77
2022/09/07 11:51:12;;;;;;;;;;;;;;;;;;5092277;28;20397;-78
2022/09/07 11:53:38;;;;;;;;;;;;;;;;;;5092367;28;19908;-77
2022/09/07 11:56:03;;;;;;;;;;;;;;;;;;5092312;28;19919;-79
2022/09/07 11:58:29;;;;;;;;;;;;;;;;;;5090976;28;19908;-80
2022/09/07 12:00:54;;;;;;;;;;;;;;;;;;5092687;28;19918;-79
2022/09/07 12:03:21;;;;;;;;;;;;;;;;;;5075123;28;20377;-77
2022/09/07 12:05:47;;;;;;;;;;;;;;;;;;5092320;28;19912;-78
2022/09/07 12:08:12;;;;;;;;;;;;;;;;;;5093267;28;20335;-78
2022/09/07 12:10:38;;;;;;;;;;;;;;;;;;5092819;28;19981;-79
2022/09/07 12:13:03;;;;;;;;;;;;;;;;;;5093311;28;20019;-78
2022/09/07 12:15:30;;;;;;;;;;;;;;;;;;5094353;28;19912;-80
2022/09/07 12:17:55;;;;;;;;;;;;;;;;;;5074926;28;20918;-77
2022/09/07 12:20:21;;;;;;;;;;;;;;;;;;5092930;28;19911;-78
2022/09/07 12:22:46;;;;;;;;;;;;;;;;;;5071819;28;19916;-77
2022/09/07 12:25:11;;;;;;;;;;;;;;;;;;5092030;28;19912;-78
2022/09/07 12:27:37;;;;;;;;;;;;;;;;;;5084552;28;20395;-79
2022/09/07 12:30:04;;;;;;;;;;;;;;;;;;5090632;28;19924;-77
2022/09/07 12:32:29;;;;;;;;;;;;;;;;;;5093548;28;19958;-78
2022/09/07 12:34:56;;;;;;;;;;;;;;;;;;5090974;28;19919;-78
2022/09/07 12:37:22;;;;;;;;;;;;;;;;;;5092106;28;20034;-78
2022/09/07 12:39:48;;;;;;;;;;;;;;;;;;5091881;28;19911;-76
2022/09/07 12:42:14;;;;;;;;;;;;;;;;;;5092038;28;19915;-78
2022/09/07 12:44:39;;;;;;;;;;;;;;;;;;5093368;28;19916;-78
2022/09/07 12:47:05;;;;;;;;;;;;;;;;;;5091471;28;19908;-77
2022/09/07 12:49:31;;;;;;;;;;;;;;;;;;5075119;28;19916;-80
2022/09/07 12:51:56;;;;;;;;;;;;;;;;;;5091198;28;20002;-77
2022/09/07 12:54:21;;;;;;;;;;;;;;;;;;5092194;28;19911;-79
2022/09/07 12:56:48;;;;;;;;;;;;;;;;;;5068721;28;19908;-80
2022/09/07 12:59:13;;;;;;;;;;;;;;;;;;5092730;28;19912;-78
2022/09/07 13:01:39;;;;;;;;;;;;;;;;;;5074704;28;19976;-79
2022/09/07 13:04:04;;;;;;;;;;;;;;;;;;5092434;28;20325;-77
2022/09/07 13:06:29;;;;;;;;;;;;;;;;;;5092831;28;19929;-77
2022/09/07 13:08:55;;;;;;;;;;;;;;;;;;5088960;28;19923;-79
2022/09/07 13:11:20;;;;;;;;;;;;;;;;;;5092825;28;19908;-77
2022/09/07 13:13:46;;;;;;;;;;;;;;;;;;5082111;28;19959;-80
2022/09/07 13:16:12;;;;;;;;;;;;;;;;;;5074664;28;19908;-77
2022/09/07 13:18:37;;;;;;;;;;;;;;;;;;5092513;28;20365;-77
2022/09/07 13:21:03;;;;;;;;;;;;;;;;;;5082326;28;19947;-77
2022/09/07 13:23:28;;;;;;;;;;;;;;;;;;5080194;28;19963;-78
2022/09/07 13:25:54;;;;;;;;;;;;;;;;;;5078651;28;20002;-79
2022/09/07 13:28:20;;;;;;;;;;;;;;;;;;5094674;28;19920;-77
2022/09/07 13:30:46;;;;;;;;;;;;;;;;;;5096655;28;20283;-80
2022/09/07 13:33:12;;;;;;;;;;;;;;;;;;5095174;28;20397;-77
2022/09/07 13:35:37;;;;;;;;;;;;;;;;;;5094803;28;19908;-77
2022/09/07 13:38:02;;;;;;;;;;;;;;;;;;5094787;28;19916;-79
2022/09/07 13:40:28;;;;;;;;;;;;;;;;;;5095486;28;19908;-80
2022/09/07 13:42:53;;;;;;;;;;;;;;;;;;5094069;28;19983;-77
2022/09/07 13:45:19;;;;;;;;;;;;;;;;;;5094393;28;19908;-78
2022/09/07 13:47:44;;;;;;;;;;;;;;;;;;5076064;28;19912;-80
2022/09/07 13:50:09;;;;;;;;;;;;;;;;;;5075265;28;19965;-78
2022/09/07 13:52:35;;;;;;;;;;;;;;;;;;5089023;28;19912;-78
2022/09/07 13:55:01;;;;;;;;;;;;;;;;;;5095235;28;19916;-79
2022/09/07 13:57:26;;;;;;;;;;;;;;;;;;5090558;28;19973;-79
2022/09/07 13:59:52;;;;;;;;;;;;;;;;;;5090832;28;20263;-78
2022/09/07 14:02:17;;;;;;;;;;;;;;;;;;5096521;28;20060;-80
2022/09/07 14:04:43;;;;;;;;;;;;;;;;;;5094567;28;20007;-80
2022/09/07 14:07:08;;;;;;;;;;;;;;;;;;5095887;28;19998;-79
2022/09/07 14:09:33;;;;;;;;;;;;;;;;;;5095626;28;20004;-77
2022/09/07 14:11:59;;;;;;;;;;;;;;;;;;5083806;28;20409;-77
2022/09/07 14:14:24;;;;;;;;;;;;;;;;;;5096434;28;20429;-78
2022/09/07 14:16:50;;;;;;;;;;;;;;;;;;5095485;28;19973;-79
2022/09/07 14:19:15;;;;;;;;;;;;;;;;;;5094503;28;19954;-78
2022/09/07 14:21:40;;;;;;;;;;;;;;;;;;5094064;28;19912;-77
2022/09/07 14:24:06;;;;;;;;;;;;;;;;;;5094512;28;19959;-77
2022/09/07 14:26:32;;;;;;;;;;;;;;;;;;5093799;28;20060;-79
2022/09/07 14:28:57;;;;;;;;;;;;;;;;;;5095353;28;19912;-78
2022/09/07 14:31:23;;;;;;;;;;;;;;;;;;5093318;28;19911;-77
2022/09/07 14:33:48;;;;;;;;;;;;;;;;;;5087303;28;19952;-79
2022/09/07 14:36:14;;;;;;;;;;;;;;;;;;5076894;28;19920;-78
2022/09/07 14:38:39;;;;;;;;;;;;;;;;;;5086168;28;19922;-78
2022/09/07 14:41:05;;;;;;;;;;;;;;;;;;5094085;28;20018;-79
2022/09/07 14:43:31;;;;;;;;;;;;;;;;;;5086565;28;19918;-78
2022/09/07 14:45:56;;;;;;;;;;;;;;;;;;5093896;28;20430;-79
2022/09/07 14:48:21;;;;;;;;;;;;;;;;;;5077104;28;19916;-78
2022/09/07 14:50:47;;;;;;;;;;;;;;;;;;5093236;28;19937;-78
2022/09/07 14:53:12;;;;;;;;;;;;;;;;;;5095001;28;19998;-77
2022/09/07 14:55:37;;;;;;;;;;;;;;;;;;5094643;28;19912;-78
2022/09/07 14:58:03;;;;;;;;;;;;;;;;;;5092074;28;19915;-79
2022/09/07 15:00:28;;;;;;;;;;;;;;;;;;5093781;28;19918;-78
2022/09/07 15:02:54;;;;;;;;;;;;;;;;;;5093889;28;19908;-81
2022/09/07 15:05:19;;;;;;;;;;;;;;;;;;5093744;28;19912;-77
2022/09/07 15:07:44;;;;;;;;;;;;;;;;;;5094246;28;19934;-79
2022/09/07 15:10:10;;;;;;;;;;;;;;;;;;5093299;28;19951;-78
2022/09/07 15:12:35;;;;;;;;;;;;;;;;;;5094241;28;19908;-80
2022/09/07 15:15:01;;;;;;;;;;;;;;;;;;5090798;28;19964;-78
2022/09/07 15:17:27;;;;;;;;;;;;;;;;;;5083380;28;19908;-79
2022/09/07 15:19:52;;;;;;;;;;;;;;;;;;5087879;28;19911;-79
2022/09/07 15:22:18;;;;;;;;;;;;;;;;;;5089680;28;20397;-78
2022/09/07 15:24:43;;;;;;;;;;;;;;;;;;5089384;28;19965;-78
2022/09/07 15:27:08;;;;;;;;;;;;;;;;;;5076882;28;19963;-79
2022/09/07 15:29:34;;;;;;;;;;;;;;;;;;5094265;28;19970;-80
2022/09/07 15:31:59;;;;;;;;;;;;;;;;;;5093075;28;19912;-83
2022/09/07 15:34:25;;;;;;;;;;;;;;;;;;5082274;28;20346;-81
2022/09/07 15:36:51;;;;;;;;;;;;;;;;;;5066685;28;19932;-79
2022/09/07 15:39:16;;;;;;;;;;;;;;;;;;5084103;28;19912;-78
2022/09/07 15:41:41;;;;;;;;;;;;;;;;;;5082269;28;20290;-78
2022/09/07 15:44:08;;;;;;;;;;;;;;;;;;5080527;28;19912;-78
2022/09/07 15:46:33;;;;;;;;;;;;;;;;;;5093707;28;19922;-78
2022/09/07 15:48:59;;;;;;;;;;;;;;;;;;5093943;28;19916;-78
2022/09/07 15:51:24;;;;;;;;;;;;;;;;;;5094153;28;19918;-79
2022/09/07 15:53:49;;;;;;;;;;;;;;;;;;5092680;28;19916;-80
2022/09/07 15:56:15;;;;;;;;;;;;;;;;;;5085602;28;19908;-77
2022/09/07 15:58:42;;;;;;;;;;;;;;;;;;5090127;28;19923;-79
2022/09/07 16:01:07;;;;;;;;;;;;;;;;;;5088637;28;19943;-78
2022/09/07 16:03:33;;;;;;;;;;;;;;;;;;5081002;28;19966;-78
2022/09/07 16:05:58;;;;;;;;;;;;;;;;;;5085162;28;19908;-77
2022/09/07 16:08:23;;;;;;;;;;;;;;;;;;5074090;28;20459;-77
2022/09/07 16:10:49;;;;;;;;;;;;;;;;;;5086917;28;19922;-79
2022/09/07 16:13:14;;;;;;;;;;;;;;;;;;5087646;28;19990;-77
2022/09/07 16:15:39;;;;;;;;;;;;;;;;;;5090314;28;20293;-79
2022/09/07 16:18:05;;;;;;;;;;;;;;;;;;5082164;28;19916;-80
2022/09/07 16:20:30;;;;;;;;;;;;;;;;;;5090165;28;20021;-79
2022/09/07 16:22:56;;;;;;;;;;;;;;;;;;5093076;28;19912;-78
2022/09/07 16:25:21;;;;;;;;;;;;;;;;;;5090913;28;19908;-79
2022/09/07 16:27:46;;;;;;;;;;;;;;;;;;5073737;28;19931;-78
2022/09/07 16:30:12;;;;;;;;;;;;;;;;;;5049478;28;19908;-80
2022/09/07 16:32:37;;;;;;;;;;;;;;;;;;5054734;28;20414;-78